Hood Army Air Field
KHLR : now visible

Airfield :











YOU CAN JOIN US ON...

 
LOGIN :

Register | Disclaimer

   EN    FR    IT 

 









Legend :    VFR   Marginal VFR   IFR   Intensive IFR   Very Intensive IFR
Visi :
Ceiling :
>= 8 km
>= 3000ft
5 to 8 km
1000 to 3000 ft
1500m to 5 km
500 to 1000 ft
800 to 1500m
200 to 500 ft
< 800m
< 200 ft
Symbols :   Thunderstorms  Fog  Heavy snow  Heavy precipitations  Wind > 20 kt






- Airport Elevation : 924 ft


KHLR - Hood Army Air Field

CURRENT METAR :
  • 162058Z AUTO 15010KT 10SM FEW250 17/02 A3011 RMK AO2 SLP195 T01700020 57030

EXPIRED METARs :
  • 161958Z AUTO 16008KT 10SM FEW310 17/02 A3012 RMK AO2 SLP198 T01670022
  • 161858Z AUTO 15010KT 10SM CLR 17/02 A3015 RMK AO2 SLP209 T01670018

TAF N/A



MET'MAP, your aeronautical weather chart ! - Copyright ORBIFLY December 2007 - Disclaimer

ORBIFLY MET'MAP TEAM :

Programming & Development : Alexandra Zaïnal
Concept & Development : Baudouin d'Aumeries
Co-Development & Prog : Marc-Olivier Méhu
Technical & hardware support : Manuel Goepfert

Contact : metmap@orbifly.com




SOURCES & CREDITS :

   NOAA       Earth
Advisory